createdAt,value
2023-07-07T00:00:16.600Z,24.80
2023-07-07T00:02:43.238Z,24.76
2023-07-07T00:05:09.847Z,24.74
2023-07-07T00:07:36.477Z,24.73
2023-07-07T00:10:03.067Z,24.59
2023-07-07T00:12:31.330Z,24.68
2023-07-07T00:14:58.057Z,24.56
2023-07-07T00:17:26.286Z,24.64
2023-07-07T00:19:53.020Z,24.63
2023-07-07T00:22:19.626Z,24.63
2023-07-07T00:24:46.229Z,24.61
2023-07-07T00:27:12.779Z,24.64
2023-07-07T00:29:39.362Z,24.64
2023-07-07T00:32:06.244Z,24.66
2023-07-07T00:34:32.841Z,24.65
2023-07-07T00:36:59.388Z,24.68
2023-07-07T00:39:25.944Z,24.69
2023-07-07T00:41:52.516Z,24.71
2023-07-07T00:44:19.182Z,24.72
2023-07-07T00:46:45.818Z,24.71
2023-07-07T00:49:15.984Z,24.74
2023-07-07T00:51:51.824Z,24.73
2023-07-07T00:54:22.918Z,24.71
2023-07-07T00:56:50.567Z,24.77
2023-07-07T00:59:22.478Z,24.79
2023-07-07T01:01:52.288Z,24.72
2023-07-07T01:04:19.091Z,24.78
2023-07-07T01:06:50.263Z,24.81
2023-07-07T01:09:16.979Z,24.77
2023-07-07T01:11:43.593Z,24.80
2023-07-07T01:14:16.535Z,24.79
2023-07-07T01:16:47.596Z,24.84
2023-07-07T01:19:27.304Z,24.84
2023-07-07T01:22:31.726Z,24.84
2023-07-07T01:25:23.981Z,24.86
2023-07-07T01:28:32.759Z,24.86
2023-07-07T01:31:07.320Z,24.87
2023-07-07T01:33:33.921Z,24.80
2023-07-07T01:36:00.467Z,24.87
2023-07-07T01:38:32.889Z,24.77
2023-07-07T01:41:07.560Z,24.84
2023-07-07T01:43:44.556Z,24.81
2023-07-07T01:46:30.722Z,24.77
2023-07-07T01:48:58.825Z,24.75
2023-07-07T01:51:28.266Z,24.72
2023-07-07T01:53:54.874Z,24.68
2023-07-07T01:56:23.535Z,24.60
2023-07-07T01:58:50.148Z,24.66
2023-07-07T02:01:16.758Z,24.64
2023-07-07T02:03:43.330Z,24.61
2023-07-07T02:06:09.939Z,24.58
2023-07-07T02:08:36.468Z,24.61
2023-07-07T02:11:03.057Z,24.58
2023-07-07T02:13:29.704Z,24.61
2023-07-07T02:15:56.493Z,24.61
2023-07-07T02:18:27.938Z,24.65
2023-07-07T02:20:54.717Z,24.60
2023-07-07T02:23:21.350Z,24.66
2023-07-07T02:25:47.907Z,24.68
2023-07-07T02:28:14.460Z,24.70
2023-07-07T02:30:41.261Z,24.71
2023-07-07T02:33:10.601Z,24.72
2023-07-07T02:35:37.210Z,24.72
2023-07-07T02:38:03.774Z,24.74
2023-07-07T02:40:30.929Z,24.75
2023-07-07T02:42:57.668Z,24.76
2023-07-07T02:45:24.290Z,24.77
2023-07-07T02:47:50.880Z,24.78
2023-07-07T02:50:18.859Z,24.80
2023-07-07T02:52:45.490Z,24.80
2023-07-07T02:55:12.065Z,24.81
2023-07-07T02:57:38.689Z,24.81
2023-07-07T03:00:09.942Z,24.82
2023-07-07T03:02:37.107Z,24.83
2023-07-07T03:05:03.899Z,24.83
2023-07-07T03:07:30.435Z,24.84
2023-07-07T03:09:57.058Z,24.84
2023-07-07T03:12:23.672Z,24.85
2023-07-07T03:14:53.890Z,24.86
2023-07-07T03:17:20.517Z,24.83
2023-07-07T03:19:47.104Z,24.86
2023-07-07T03:22:13.727Z,24.85
2023-07-07T03:24:40.287Z,24.84
2023-07-07T03:27:07.000Z,24.81
2023-07-07T03:29:33.586Z,24.76
2023-07-07T03:32:00.118Z,24.75
2023-07-07T03:34:26.862Z,24.73
2023-07-07T03:36:53.532Z,24.70
2023-07-07T03:39:20.076Z,24.66
2023-07-07T03:41:46.655Z,24.66
2023-07-07T03:44:14.041Z,24.64
2023-07-07T03:46:41.133Z,24.62
2023-07-07T03:49:07.966Z,24.59
2023-07-07T03:51:36.459Z,24.60
2023-07-07T03:54:04.533Z,24.60
2023-07-07T03:56:31.096Z,24.59
2023-07-07T03:58:57.638Z,24.61
2023-07-07T04:01:24.219Z,24.62
2023-07-07T04:03:50.957Z,24.63
2023-07-07T04:06:18.304Z,24.61
2023-07-07T04:08:44.863Z,24.64
2023-07-07T04:11:13.601Z,24.67
2023-07-07T04:13:40.803Z,24.67
2023-07-07T04:16:16.257Z,24.70
2023-07-07T04:18:43.125Z,24.70
2023-07-07T04:21:14.258Z,24.72
2023-07-07T04:23:42.930Z,24.73
2023-07-07T04:26:09.951Z,24.74
2023-07-07T04:28:37.245Z,24.75
2023-07-07T04:31:04.572Z,24.76
2023-07-07T04:33:31.415Z,24.77
2023-07-07T04:35:59.423Z,24.78
2023-07-07T04:38:32.196Z,24.79
2023-07-07T04:41:08.080Z,24.80
2023-07-07T04:43:34.959Z,24.78
2023-07-07T04:46:02.215Z,24.82
2023-07-07T04:48:28.891Z,24.82
2023-07-07T04:51:04.397Z,24.83
2023-07-07T04:53:33.525Z,24.83
2023-07-07T04:56:03.242Z,24.84
2023-07-07T04:58:29.933Z,24.81
2023-07-07T05:01:16.633Z,24.86
2023-07-07T05:03:44.462Z,24.84
2023-07-07T05:06:11.531Z,24.85
2023-07-07T05:08:42.223Z,24.83
2023-07-07T05:11:11.208Z,24.81
2023-07-07T05:13:37.821Z,24.78
2023-07-07T05:16:11.687Z,24.76
2023-07-07T05:18:38.444Z,24.71
2023-07-07T05:21:06.929Z,24.70
2023-07-07T05:23:33.886Z,24.68
2023-07-07T05:26:00.443Z,24.66
2023-07-07T05:28:27.296Z,24.65
2023-07-07T05:30:53.885Z,24.62
2023-07-07T05:33:21.021Z,24.61
2023-07-07T05:35:48.283Z,24.60
2023-07-07T05:38:16.305Z,24.62
2023-07-07T05:40:46.493Z,24.64
2023-07-07T05:43:16.873Z,24.64
2023-07-07T05:45:43.585Z,24.62
2023-07-07T05:48:10.571Z,24.66
2023-07-07T05:50:37.290Z,24.64
2023-07-07T05:53:04.323Z,24.69
2023-07-07T05:55:33.642Z,24.69
2023-07-07T05:58:01.214Z,24.69
2023-07-07T06:00:28.315Z,24.73
2023-07-07T06:02:58.197Z,24.75
2023-07-07T06:05:25.075Z,24.76
2023-07-07T06:07:52.064Z,24.76
2023-07-07T06:10:18.751Z,24.78
2023-07-07T06:12:45.352Z,24.79
2023-07-07T06:15:12.080Z,24.75
2023-07-07T06:17:38.694Z,24.76
2023-07-07T06:20:05.503Z,24.78
2023-07-07T06:22:32.053Z,24.78
2023-07-07T06:24:59.338Z,24.82
2023-07-07T06:27:25.883Z,24.84
2023-07-07T06:29:52.443Z,24.85
2023-07-07T06:32:19.065Z,24.86
2023-07-07T06:34:45.688Z,24.86
2023-07-07T06:37:12.272Z,24.87
2023-07-07T06:39:38.865Z,24.87
2023-07-07T06:42:05.834Z,24.88
2023-07-07T06:44:34.017Z,24.89
2023-07-07T06:47:01.042Z,24.88
2023-07-07T06:49:27.675Z,24.87
2023-07-07T06:51:54.304Z,24.83
2023-07-07T06:54:20.897Z,24.83
2023-07-07T06:56:47.473Z,24.81
2023-07-07T06:59:14.036Z,24.78
2023-07-07T07:01:41.324Z,24.76
2023-07-07T07:04:08.023Z,24.74
2023-07-07T07:06:34.650Z,24.70
2023-07-07T07:09:01.224Z,24.68
2023-07-07T07:11:27.802Z,24.66
2023-07-07T07:13:54.424Z,24.63
2023-07-07T07:16:21.080Z,24.64
2023-07-07T07:18:47.690Z,24.64
2023-07-07T07:21:14.440Z,24.64
2023-07-07T07:23:41.098Z,24.65
2023-07-07T07:26:07.675Z,24.65
2023-07-07T07:28:34.350Z,24.65
2023-07-07T07:31:01.075Z,24.68
2023-07-07T07:33:27.825Z,24.67
2023-07-07T07:35:54.419Z,24.70
2023-07-07T07:38:23.790Z,24.71
2023-07-07T07:40:53.749Z,24.72
2023-07-07T07:43:21.352Z,24.74
2023-07-07T07:45:47.953Z,24.75
2023-07-07T07:48:14.596Z,24.77
2023-07-07T07:50:41.222Z,24.77
2023-07-07T07:53:07.828Z,24.78
2023-07-07T07:55:34.356Z,24.80
2023-07-07T07:58:01.145Z,24.80
2023-07-07T08:00:27.709Z,24.82
2023-07-07T08:02:54.374Z,24.83
2023-07-07T08:05:21.016Z,24.83
2023-07-07T08:07:47.664Z,24.84
2023-07-07T08:10:14.239Z,24.85
2023-07-07T08:12:40.820Z,24.85
2023-07-07T08:15:07.545Z,24.84
2023-07-07T08:17:34.366Z,24.87
2023-07-07T08:20:01.024Z,24.88
2023-07-07T08:22:27.673Z,24.89
2023-07-07T08:24:55.583Z,24.89
2023-07-07T08:29:52.603Z,24.85
2023-07-07T08:32:22.451Z,24.89
2023-07-07T08:34:54.774Z,24.87
2023-07-07T08:37:23.113Z,24.83
2023-07-07T08:39:51.121Z,24.83
2023-07-07T08:42:20.608Z,24.80
2023-07-07T08:44:47.301Z,24.77
2023-07-07T08:47:19.216Z,24.75
2023-07-07T08:49:56.446Z,24.72
2023-07-07T08:52:39.162Z,24.65
2023-07-07T08:55:13.087Z,24.69
2023-07-07T08:57:45.592Z,24.66
2023-07-07T09:00:22.471Z,24.65
2023-07-07T09:03:08.443Z,24.65
2023-07-07T09:05:53.847Z,24.65
2023-07-07T09:11:40.193Z,24.66
2023-07-07T09:14:07.219Z,24.67
2023-07-07T09:16:35.961Z,24.69
2023-07-07T09:19:12.012Z,24.70
2023-07-07T09:21:48.303Z,24.65
2023-07-07T09:24:33.590Z,24.65
2023-07-07T09:27:07.647Z,24.67
2023-07-07T09:29:34.235Z,24.76
2023-07-07T09:32:04.055Z,24.75
2023-07-07T09:34:31.369Z,24.78
2023-07-07T09:37:35.472Z,24.79
2023-07-07T09:40:20.687Z,24.80
2023-07-07T09:43:05.203Z,24.82
2023-07-07T09:45:40.640Z,24.82
2023-07-07T09:48:34.274Z,24.83
2023-07-07T09:51:09.313Z,24.83
2023-07-07T09:53:46.822Z,24.85
2023-07-07T09:56:17.844Z,24.85
2023-07-07T09:58:58.375Z,24.86
2023-07-07T10:01:29.678Z,24.87
2023-07-07T10:03:56.414Z,24.88
2023-07-07T10:06:33.030Z,24.89
2023-07-07T10:09:00.465Z,24.88
2023-07-07T10:14:16.315Z,24.89
2023-07-07T10:17:11.201Z,24.88
2023-07-07T10:19:45.084Z,24.85
2023-07-07T10:22:15.498Z,24.83
2023-07-07T10:24:45.067Z,24.80
2023-07-07T10:27:12.785Z,24.77
2023-07-07T10:29:41.683Z,24.76
2023-07-07T10:32:18.856Z,24.73
2023-07-07T10:34:50.171Z,24.70
2023-07-07T10:37:23.723Z,24.69
2023-07-07T10:39:54.896Z,24.67
2023-07-07T10:42:24.756Z,24.64
2023-07-07T10:44:52.254Z,24.63
2023-07-07T10:47:23.459Z,24.61
2023-07-07T10:49:50.733Z,24.60
2023-07-07T10:55:21.216Z,24.57
2023-07-07T10:58:03.083Z,24.57
2023-07-07T11:00:39.167Z,24.55
2023-07-07T11:03:22.072Z,24.55
2023-07-07T11:09:30.514Z,24.54
2023-07-07T11:12:34.146Z,24.52
2023-07-07T11:15:13.095Z,24.52
2023-07-07T11:18:01.248Z,24.52
2023-07-07T11:20:33.641Z,24.51
2023-07-07T11:24:00.661Z,24.50
2023-07-07T11:26:39.390Z,24.51
2023-07-07T11:29:12.258Z,24.50
2023-07-07T11:32:06.654Z,24.42
2023-07-07T11:34:36.182Z,24.49
2023-07-07T11:37:13.397Z,24.49
2023-07-07T11:40:05.577Z,24.49
2023-07-07T11:43:04.371Z,24.48
2023-07-07T11:45:49.645Z,24.47
2023-07-07T11:48:42.397Z,24.48
2023-07-07T11:51:22.642Z,24.44
2023-07-07T11:53:55.328Z,24.49
2023-07-07T11:56:24.824Z,24.48
2023-07-07T11:59:09.908Z,24.48
2023-07-07T12:01:38.872Z,24.48
2023-07-07T12:04:25.957Z,24.45
2023-07-07T12:07:03.973Z,24.47
2023-07-07T12:10:15.250Z,24.47
2023-07-07T12:12:45.478Z,24.46
2023-07-07T12:15:26.616Z,24.47
2023-07-07T12:18:05.670Z,24.45
2023-07-07T12:20:37.714Z,24.46
2023-07-07T12:23:05.621Z,24.45
2023-07-07T12:25:32.346Z,24.46
2023-07-07T12:27:59.738Z,24.45
2023-07-07T12:30:26.938Z,24.46
2023-07-07T12:32:53.673Z,24.41
2023-07-07T12:35:48.587Z,24.45
2023-07-07T12:38:33.421Z,24.45
2023-07-07T12:41:05.885Z,24.40
2023-07-07T12:43:36.959Z,24.39
2023-07-07T12:46:16.379Z,24.44
2023-07-07T12:48:42.960Z,24.43
2023-07-07T12:51:09.613Z,24.39
2023-07-07T12:53:38.479Z,24.42
2023-07-07T12:56:08.001Z,24.44
2023-07-07T12:58:37.232Z,24.43
2023-07-07T13:01:15.793Z,24.43
2023-07-07T13:03:46.039Z,24.45
2023-07-07T13:06:25.905Z,24.45
2023-07-07T13:09:11.513Z,24.44
2023-07-07T13:11:39.965Z,24.45
2023-07-07T13:14:32.585Z,24.45
2023-07-07T13:17:10.772Z,24.43
2023-07-07T13:19:37.411Z,24.44
2023-07-07T13:22:22.807Z,24.44
2023-07-07T13:24:49.382Z,24.44
2023-07-07T13:27:22.481Z,24.45
2023-07-07T13:29:49.309Z,24.42
2023-07-07T13:32:29.317Z,24.43
2023-07-07T13:34:57.654Z,24.44
2023-07-07T13:37:24.243Z,24.44
2023-07-07T13:39:50.863Z,24.38
2023-07-07T13:42:30.639Z,24.43
2023-07-07T13:45:01.399Z,24.43
2023-07-07T13:47:28.571Z,24.43
2023-07-07T13:49:58.524Z,24.42
2023-07-07T13:52:27.887Z,24.42
2023-07-07T13:54:55.826Z,24.43
2023-07-07T13:57:30.132Z,24.43
2023-07-07T13:59:57.831Z,24.37
2023-07-07T14:02:24.512Z,24.36
2023-07-07T14:05:01.085Z,24.44
2023-07-07T14:07:27.835Z,24.43
2023-07-07T14:09:54.384Z,24.45
2023-07-07T14:12:27.208Z,24.44
2023-07-07T14:14:55.698Z,24.37
2023-07-07T14:17:24.249Z,24.38
2023-07-07T14:20:01.200Z,24.45
2023-07-07T14:22:28.922Z,24.37
2023-07-07T14:24:55.906Z,24.39
2023-07-07T14:27:22.722Z,24.42
2023-07-07T14:29:49.314Z,24.44
2023-07-07T14:32:49.966Z,24.44
2023-07-07T14:35:21.838Z,24.41
2023-07-07T14:37:51.024Z,24.44
2023-07-07T14:40:34.488Z,24.44
2023-07-07T14:43:02.320Z,24.44
2023-07-07T14:45:34.486Z,24.43
2023-07-07T14:48:02.317Z,24.43
2023-07-07T14:50:30.066Z,24.43
2023-07-07T14:52:57.239Z,24.44
2023-07-07T14:55:25.992Z,24.43
2023-07-07T14:57:58.653Z,24.42
2023-07-07T15:00:41.515Z,24.42
2023-07-07T15:03:27.027Z,24.42
2023-07-07T15:05:59.867Z,24.43
2023-07-07T15:08:30.305Z,24.43
2023-07-07T15:11:07.098Z,24.41
2023-07-07T15:13:33.845Z,24.40
2023-07-07T15:16:01.438Z,24.42
2023-07-07T15:18:28.255Z,24.43
2023-07-07T15:20:54.811Z,24.44
2023-07-07T15:23:21.419Z,24.44
2023-07-07T15:25:48.000Z,24.43
2023-07-07T15:28:16.366Z,24.42
2023-07-07T15:30:43.402Z,24.43
2023-07-07T15:33:10.959Z,24.42
2023-07-07T15:35:37.615Z,24.44
2023-07-07T15:38:41.263Z,24.39
2023-07-07T15:41:14.533Z,24.44
2023-07-07T15:43:41.177Z,24.44
2023-07-07T15:46:36.379Z,24.41
2023-07-07T15:49:10.741Z,24.41
2023-07-07T15:51:38.498Z,24.44
2023-07-07T15:54:07.266Z,24.44
2023-07-07T15:56:38.345Z,24.44
2023-07-07T15:59:19.042Z,24.44
2023-07-07T16:01:45.878Z,24.44
2023-07-07T16:04:12.830Z,24.45
2023-07-07T16:06:39.543Z,24.41
2023-07-07T16:09:13.807Z,24.45
2023-07-07T16:11:40.402Z,24.43
2023-07-07T16:14:07.126Z,24.40
2023-07-07T16:16:35.691Z,24.40
2023-07-07T16:19:08.375Z,24.46
2023-07-07T16:21:35.122Z,24.43
2023-07-07T16:24:01.686Z,24.44
2023-07-07T16:26:33.991Z,24.41
2023-07-07T16:29:00.539Z,24.43
2023-07-07T16:31:28.073Z,24.44
2023-07-07T16:33:54.719Z,24.44
2023-07-07T16:36:25.842Z,24.45
2023-07-07T16:38:52.718Z,24.42
2023-07-07T16:41:24.932Z,24.44
2023-07-07T16:43:52.122Z,24.42
2023-07-07T16:46:20.425Z,24.16
2023-07-07T16:48:49.851Z,24.44
2023-07-07T16:51:27.754Z,24.44
2023-07-07T16:53:54.662Z,24.44
2023-07-07T16:56:24.980Z,24.43
2023-07-07T16:58:51.822Z,24.43
2023-07-07T17:01:18.638Z,24.42
2023-07-07T17:03:45.465Z,24.44
2023-07-07T17:06:18.539Z,24.44
2023-07-07T17:08:45.096Z,24.44
2023-07-07T17:11:11.832Z,24.44
2023-07-07T17:13:38.421Z,24.45
2023-07-07T17:16:16.482Z,24.44
2023-07-07T17:18:43.135Z,24.45
2023-07-07T17:21:10.967Z,24.45
2023-07-07T17:23:37.506Z,24.46
2023-07-07T17:26:04.024Z,24.46
2023-07-07T17:28:30.598Z,24.41
2023-07-07T17:30:57.410Z,24.45
2023-07-07T17:33:24.243Z,24.46
2023-07-07T17:35:50.794Z,24.46
2023-07-07T17:38:17.527Z,24.46
2023-07-07T17:40:45.888Z,24.46
2023-07-07T17:43:12.486Z,24.46
2023-07-07T17:45:39.055Z,24.47
2023-07-07T17:48:11.028Z,24.45
2023-07-07T17:50:50.507Z,24.47
2023-07-07T17:53:17.909Z,24.46
2023-07-07T17:55:44.490Z,24.46
2023-07-07T17:58:11.427Z,24.47
2023-07-07T18:00:38.928Z,24.47
2023-07-07T18:03:05.571Z,24.46
2023-07-07T18:05:32.278Z,24.46
2023-07-07T18:07:58.857Z,24.47
2023-07-07T18:10:30.094Z,24.45
2023-07-07T18:12:56.880Z,24.45
2023-07-07T18:15:24.190Z,24.45
2023-07-07T18:18:04.773Z,24.45
2023-07-07T18:21:50.890Z,24.44
2023-07-07T18:23:27.164Z,24.44
2023-07-07T18:25:53.734Z,24.39
2023-07-07T18:28:20.297Z,24.43
2023-07-07T18:30:48.087Z,24.42
2023-07-07T18:33:15.375Z,24.42
2023-07-07T18:35:42.075Z,24.44
2023-07-07T18:38:15.569Z,24.44
2023-07-07T18:40:42.157Z,24.43
2023-07-07T18:43:08.764Z,24.44
2023-07-07T18:45:36.884Z,24.45
2023-07-07T18:48:03.749Z,24.44
2023-07-07T18:50:34.517Z,24.44
2023-07-07T18:53:01.368Z,24.43
2023-07-07T18:55:30.041Z,24.45
2023-07-07T18:57:56.959Z,24.45
2023-07-07T19:00:26.584Z,24.46
2023-07-07T19:02:53.164Z,24.44
2023-07-07T19:05:19.758Z,24.44
2023-07-07T19:07:46.337Z,24.46
2023-07-07T19:10:30.966Z,24.46
2023-07-07T19:13:13.698Z,24.46
2023-07-07T19:15:41.062Z,24.46
2023-07-07T19:18:09.446Z,24.46
2023-07-07T19:20:36.051Z,24.47
2023-07-07T19:23:02.643Z,24.41
2023-07-07T19:25:29.248Z,24.45
2023-07-07T19:27:55.868Z,24.45
2023-07-07T19:30:22.384Z,24.46
2023-07-07T19:32:49.003Z,24.45
2023-07-07T19:35:15.698Z,24.46
2023-07-07T19:37:42.599Z,24.47
2023-07-07T19:40:17.153Z,24.42
2023-07-07T19:42:43.714Z,24.46
2023-07-07T19:45:10.302Z,24.47
2023-07-07T19:47:36.956Z,24.47
2023-07-07T19:50:03.641Z,24.48
2023-07-07T19:52:30.236Z,24.47
2023-07-07T19:54:57.454Z,24.49
2023-07-07T19:57:24.185Z,24.49
2023-07-07T19:59:50.835Z,24.48
2023-07-07T20:02:18.735Z,24.49
2023-07-07T20:04:45.401Z,24.47
2023-07-07T20:07:12.742Z,24.47
2023-07-07T20:09:39.495Z,24.49
2023-07-07T20:12:13.071Z,24.49
2023-07-07T20:14:39.925Z,24.48
2023-07-07T20:17:12.052Z,24.49
2023-07-07T20:19:38.668Z,24.49
2023-07-07T20:22:10.917Z,24.49
2023-07-07T20:24:37.928Z,24.49
2023-07-07T20:27:07.770Z,24.49
2023-07-07T20:29:34.426Z,24.48
2023-07-07T20:32:01.670Z,24.48
2023-07-07T20:34:28.276Z,24.47
2023-07-07T20:36:54.860Z,24.46
2023-07-07T20:39:21.550Z,24.46
2023-07-07T20:41:48.861Z,24.44
2023-07-07T20:44:15.411Z,24.22
2023-07-07T20:46:43.069Z,24.46
2023-07-07T20:49:28.937Z,24.44
2023-07-07T20:51:55.502Z,24.43
2023-07-07T20:54:22.224Z,24.43
2023-07-07T20:56:48.888Z,24.42
2023-07-07T20:59:27.254Z,24.43
2023-07-07T21:01:55.236Z,24.43
2023-07-07T21:04:21.982Z,24.42
2023-07-07T21:06:48.532Z,24.42
2023-07-07T21:09:15.331Z,24.41
2023-07-07T21:11:41.893Z,24.39
2023-07-07T21:14:08.543Z,24.43
2023-07-07T21:16:35.334Z,24.43
2023-07-07T21:19:02.113Z,24.43
2023-07-07T21:21:28.683Z,24.42
2023-07-07T21:23:55.290Z,24.43
2023-07-07T21:26:31.534Z,24.41
2023-07-07T21:28:58.326Z,24.45
2023-07-07T21:31:26.407Z,24.43
2023-07-07T21:33:53.121Z,24.43
2023-07-07T21:36:30.845Z,24.42
2023-07-07T21:39:26.059Z,24.41
2023-07-07T21:42:06.770Z,24.43
2023-07-07T21:44:39.338Z,24.39
2023-07-07T21:47:05.927Z,24.44
2023-07-07T21:49:32.620Z,24.42
2023-07-07T21:52:03.126Z,24.41
2023-07-07T21:54:30.264Z,24.43
2023-07-07T21:56:56.879Z,24.44
2023-07-07T21:59:23.509Z,24.45
2023-07-07T22:01:51.385Z,24.44
2023-07-07T22:04:18.059Z,24.44
2023-07-07T22:06:44.691Z,24.42
2023-07-07T22:09:12.504Z,24.43
2023-07-07T22:11:39.083Z,24.44
2023-07-07T22:14:05.829Z,24.44
2023-07-07T22:16:32.536Z,24.43
2023-07-07T22:18:59.136Z,24.40
2023-07-07T22:21:25.676Z,24.43
2023-07-07T22:23:52.330Z,24.44
2023-07-07T22:26:20.953Z,24.44
2023-07-07T22:28:47.645Z,24.44
2023-07-07T22:31:16.347Z,24.44
2023-07-07T22:33:43.026Z,24.43
2023-07-07T22:36:24.045Z,24.44
2023-07-07T22:38:50.764Z,24.43
2023-07-07T22:41:22.489Z,24.42
2023-07-07T22:43:49.177Z,24.40
2023-07-07T22:46:26.387Z,24.42
2023-07-07T22:48:53.042Z,24.44
2023-07-07T22:51:19.623Z,24.42
2023-07-07T22:53:46.212Z,24.44
2023-07-07T22:56:26.924Z,24.44
2023-07-07T22:58:54.026Z,24.45
2023-07-07T23:01:20.775Z,24.44
2023-07-07T23:03:48.858Z,24.44
2023-07-07T23:06:15.948Z,24.44
2023-07-07T23:08:42.645Z,24.44
2023-07-07T23:11:13.108Z,24.43
2023-07-07T23:13:39.812Z,24.44
2023-07-07T23:16:13.410Z,24.44
2023-07-07T23:18:42.713Z,24.41
2023-07-07T23:21:13.512Z,24.44
2023-07-07T23:23:40.110Z,24.44
2023-07-07T23:26:12.222Z,24.44
2023-07-07T23:28:38.811Z,24.44
2023-07-07T23:31:06.207Z,24.44
2023-07-07T23:33:33.976Z,24.40
2023-07-07T23:36:00.860Z,24.43
2023-07-07T23:38:27.803Z,24.42
2023-07-07T23:40:54.416Z,24.40
2023-07-07T23:43:21.037Z,24.40
2023-07-07T23:45:47.777Z,24.40
2023-07-07T23:48:18.357Z,24.40
2023-07-07T23:50:44.887Z,24.40
2023-07-07T23:53:11.437Z,24.39
2023-07-07T23:55:38.006Z,24.39
2023-07-07T23:58:04.535Z,24.38
